Time;durP1;ratioP1;P1;durP2;ratioP2;P2;SDS_P1;SDS_P2;PMS_P1;PMS_P2;Temp;Humidity;BMP_temperature;BMP_pressure;BME280_temperature;BME280_humidity;BME280_pressure;Samples;Min_cycle;Max_cycle;Signal;HPM_P1;HPM_P2
2021/07/16 00:00:00;;;;;;;22.73;12.57;;;;;;;19.83;70.96;100479.41;5080864;28;20980;-75
2021/07/16 00:02:26;;;;;;;25.43;12.60;;;;;;;19.73;71.11;100479.72;5081255;28;20508;-75
2021/07/16 00:04:53;;;;;;;18.87;11.27;;;;;;;19.87;70.78;100475.28;5081006;28;20495;-75
2021/07/16 00:07:20;;;;;;;25.93;11.10;;;;;;;19.77;70.80;100469.34;5080755;28;20711;-75
2021/07/16 00:09:46;;;;;;;23.20;11.00;;;;;;;19.69;70.81;100471.13;5081188;28;20444;-75
2021/07/16 00:12:14;;;;;;;21.17;11.10;;;;;;;19.75;70.98;100485.81;5080519;28;21004;-75
2021/07/16 00:14:41;;;;;;;22.03;11.50;;;;;;;19.61;70.86;100501.09;5081588;28;20440;-75
2021/07/16 00:17:09;;;;;;;23.70;11.27;;;;;;;19.62;70.94;100499.25;5080685;28;20543;-75
2021/07/16 00:19:35;;;;;;;25.37;11.13;;;;;;;19.80;70.59;100507.75;5080002;28;21052;-75
2021/07/16 00:22:02;;;;;;;16.90;10.83;;;;;;;19.92;70.01;100511.63;5080902;28;20487;-75
2021/07/16 00:24:29;;;;;;;22.60;11.17;;;;;;;20.17;69.17;100511.19;5072891;28;20464;-75
2021/07/16 00:26:55;;;;;;;33.90;11.60;;;;;;;19.82;70.20;100516.53;5080319;28;20484;-74
2021/07/16 00:29:24;;;;;;;20.23;11.73;;;;;;;19.84;70.56;100509.06;5080861;28;20447;-73
2021/07/16 00:31:51;;;;;;;21.27;11.17;;;;;;;19.62;70.79;100513.63;5080735;28;20499;-74
2021/07/16 00:34:19;;;;;;;23.53;11.00;;;;;;;19.40;71.62;100520.91;5080386;28;20460;-74
2021/07/16 00:36:45;;;;;;;21.10;11.23;;;;;;;19.37;71.72;100515.84;5080666;28;20539;-74
2021/07/16 00:39:12;;;;;;;26.00;10.60;;;;;;;19.57;71.53;100524.22;5080571;28;20510;-74
2021/07/16 00:41:39;;;;;;;33.13;10.07;;;;;;;19.55;70.96;100516.25;5080796;28;20538;-74
2021/07/16 00:44:06;;;;;;;22.37;10.20;;;;;;;19.46;71.38;100514.72;5081175;28;20442;-74
2021/07/16 00:46:33;;;;;;;31.67;12.00;;;;;;;19.45;71.37;100512.19;5079642;28;20539;-73
2021/07/16 00:48:59;;;;;;;23.30;10.97;;;;;;;19.56;71.21;100526.09;5080002;28;20467;-74
2021/07/16 00:51:27;;;;;;;24.93;11.47;;;;;;;19.47;71.22;100524.53;5079768;28;20495;-74
2021/07/16 00:53:54;;;;;;;24.30;11.93;;;;;;;19.62;70.64;100524.47;5081120;28;20499;-74
2021/07/16 00:56:21;;;;;;;24.47;10.90;;;;;;;19.52;71.04;100524.78;5079960;28;20570;-74
2021/07/16 00:58:48;;;;;;;22.30;10.47;;;;;;;19.38;71.57;100518.38;5080656;28;20547;-74
2021/07/16 01:01:14;;;;;;;21.33;11.30;;;;;;;19.35;71.63;100513.34;5080456;28;20567;-74
2021/07/16 01:03:42;;;;;;;14.90;9.87;;;;;;;19.45;71.37;100514.91;5080666;28;21000;-74
2021/07/16 01:06:09;;;;;;;21.07;10.67;;;;;;;19.44;71.30;100516.75;5079244;28;20529;-74
2021/07/16 01:08:36;;;;;;;16.27;9.00;;;;;;;19.44;71.20;100518.63;5080066;28;20447;-74
2021/07/16 01:11:03;;;;;;;23.50;10.67;;;;;;;19.46;71.33;100513.84;5080068;28;20482;-75
2021/07/16 01:13:30;;;;;;;16.60;9.47;;;;;;;19.48;71.40;100520.78;5080819;28;20475;-74
2021/07/16 01:15:57;;;;;;;24.70;9.87;;;;;;;19.60;70.80;100523.84;5079708;28;20495;-74
2021/07/16 01:18:24;;;;;;;26.03;10.17;;;;;;;19.51;70.97;100533.09;5080916;28;20511;-76
2021/07/16 01:20:51;;;;;;;12.80;9.33;;;;;;;19.69;70.73;100530.81;5078575;28;20552;-74
2021/07/16 01:23:22;;;;;;;20.87;9.97;;;;;;;19.48;71.18;100533.53;5081095;28;20535;-75
2021/07/16 01:25:49;;;;;;;23.33;10.73;;;;;;;19.33;71.31;100538.97;5079706;28;20484;-74
2021/07/16 01:28:16;;;;;;;17.77;11.47;;;;;;;19.30;71.80;100540.19;5082890;28;20891;-74
2021/07/16 01:30:43;;;;;;;17.13;9.50;;;;;;;19.58;71.30;100544.84;5083739;28;20498;-74
2021/07/16 01:33:10;;;;;;;20.70;10.33;;;;;;;19.41;71.26;100552.41;5085066;28;20440;-75
2021/07/16 01:35:37;;;;;;;15.23;9.10;;;;;;;19.47;71.26;100540.78;5082925;28;20479;-75
2021/07/16 01:38:04;;;;;;;20.13;9.43;;;;;;;19.47;71.41;100551.63;5085451;28;20507;-75
2021/07/16 01:40:37;;;;;;;15.53;8.30;;;;;;;19.59;70.73;100557.41;5083916;28;20539;-75
2021/07/16 01:43:05;;;;;;;23.93;10.47;;;;;;;19.56;70.63;100550.50;5084309;28;20532;-75
2021/07/16 01:45:34;;;;;;;17.30;10.40;;;;;;;19.49;70.78;100546.03;5083169;28;20842;-75
2021/07/16 01:48:02;;;;;;;18.60;9.93;;;;;;;19.32;71.54;100557.13;5084335;28;20436;-75
2021/07/16 01:50:30;;;;;;;21.30;10.70;;;;;;;19.15;72.49;100552.94;5082911;28;20490;-75
2021/07/16 01:52:57;;;;;;;20.77;9.97;;;;;;;18.92;72.90;100551.19;5084436;28;20500;-75
2021/07/16 01:55:25;;;;;;;23.10;9.60;;;;;;;19.15;72.38;100550.25;5083090;28;20448;-76
2021/07/16 01:57:54;;;;;;;20.10;9.70;;;;;;;19.33;71.60;100555.22;5084080;28;20448;-75
2021/07/16 02:00:22;;;;;;;20.10;9.00;;;;;;;19.18;72.21;100560.69;5083174;28;20539;-75
2021/07/16 02:02:50;;;;;;;21.17;9.20;;;;;;;18.98;72.23;100555.00;5084386;28;20507;-75
2021/07/16 02:05:17;;;;;;;23.97;10.53;;;;;;;18.81;72.35;100557.88;5082256;28;20462;-75
2021/07/16 02:07:44;;;;;;;18.50;7.30;;;;;;;18.58;72.90;100547.13;5083439;28;20645;-75
2021/07/16 02:10:11;;;;;;;24.00;9.23;;;;;;;18.60;73.09;100553.19;5083328;28;20507;-75
2021/07/16 02:12:38;;;;;;;19.10;9.33;;;;;;;18.66;72.96;100554.31;5083767;28;20891;-75
2021/07/16 02:15:11;;;;;;;18.20;8.70;;;;;;;18.77;72.38;100553.03;5082221;28;20503;-75
2021/07/16 02:17:38;;;;;;;21.27;9.37;;;;;;;18.72;72.79;100555.47;5084120;28;20444;-75
2021/07/16 02:20:06;;;;;;;12.30;8.07;;;;;;;18.75;72.64;100557.81;5081734;28;20553;-75
2021/07/16 02:22:34;;;;;;;18.97;8.30;;;;;;;18.65;73.00;100560.78;5084252;28;20454;-75
2021/07/16 02:25:01;;;;;;;16.30;8.90;;;;;;;18.68;73.13;100560.41;5082855;28;20519;-74
2021/07/16 02:27:27;;;;;;;16.97;9.07;;;;;;;18.73;72.91;100558.00;5083079;28;20487;-75
2021/07/16 02:29:56;;;;;;;16.73;9.60;;;;;;;18.92;71.91;100570.16;5082930;28;20805;-75
2021/07/16 02:32:24;;;;;;;17.70;9.30;;;;;;;18.67;72.44;100566.84;5083087;28;20563;-76
2021/07/16 02:34:51;;;;;;;26.40;10.57;;;;;;;18.62;72.68;100570.09;5082699;28;20512;-75
2021/07/16 02:37:18;;;;;;;20.57;10.03;;;;;;;18.79;72.43;100575.34;5082915;28;20495;-75
2021/07/16 02:39:44;;;;;;;18.87;9.90;;;;;;;18.70;72.17;100574.59;5082424;28;20490;-75
2021/07/16 02:42:11;;;;;;;16.53;8.80;;;;;;;18.70;72.29;100573.78;5082066;28;20506;-74
2021/07/16 02:44:37;;;;;;;18.63;9.73;;;;;;;18.75;72.26;100574.88;5083531;28;20440;-75
2021/07/16 02:47:04;;;;;;;19.60;10.03;;;;;;;18.79;72.20;100568.06;5082650;28;20486;-75
2021/07/16 02:49:32;;;;;;;26.80;10.37;;;;;;;18.84;71.60;100574.84;5078658;28;21041;-75
2021/07/16 02:51:59;;;;;;;16.33;10.60;;;;;;;18.40;72.94;100574.56;5082553;28;20502;-75
2021/07/16 02:54:26;;;;;;;18.80;10.90;;;;;;;18.61;72.31;100579.28;5082854;28;20571;-75
2021/07/16 02:56:52;;;;;;;17.23;9.50;;;;;;;18.72;71.84;100582.53;5081841;28;21184;-75
2021/07/16 02:59:19;;;;;;;17.90;9.20;;;;;;;18.81;71.93;100579.53;5082676;28;21044;-75
2021/07/16 03:01:55;;;;;;;21.57;9.77;;;;;;;18.73;72.18;100576.09;5082160;28;20475;-75
2021/07/16 03:04:22;;;;;;;23.93;9.53;;;;;;;18.68;72.38;100583.94;5082431;28;20452;-75
2021/07/16 03:06:50;;;;;;;19.77;9.00;;;;;;;18.85;71.46;100587.34;5081671;28;20503;-74
2021/07/16 03:09:17;;;;;;;14.37;8.87;;;;;;;18.83;71.91;100584.81;5082288;28;20547;-75
2021/07/16 03:11:44;;;;;;;18.53;9.10;;;;;;;18.79;71.67;100588.91;5082284;28;20503;-75
2021/07/16 03:14:10;;;;;;;19.27;9.17;;;;;;;18.68;72.51;100587.50;5083199;28;20476;-75
2021/07/16 03:16:37;;;;;;;23.10;9.53;;;;;;;18.72;72.23;100590.66;5081642;28;20511;-74
2021/07/16 03:19:05;;;;;;;12.50;8.00;;;;;;;18.66;72.79;100597.66;5082044;28;20578;-74
2021/07/16 03:21:32;;;;;;;20.93;9.47;;;;;;;18.70;72.72;100595.44;5082023;28;20483;-75
2021/07/16 03:24:00;;;;;;;20.23;10.10;;;;;;;18.90;72.09;100599.28;5082695;28;20551;-74
2021/07/16 03:26:26;;;;;;;18.73;8.40;;;;;;;18.97;72.07;100600.25;5081695;28;20656;-75
2021/07/16 03:28:53;;;;;;;18.00;9.90;;;;;;;18.75;72.50;100601.16;5081831;28;20519;-74
2021/07/16 03:31:20;;;;;;;15.53;9.43;;;;;;;18.52;73.38;100598.47;5081342;28;20479;-75
2021/07/16 03:33:46;;;;;;;16.63;9.07;;;;;;;18.68;73.33;100589.34;5082482;28;20463;-74
2021/07/16 03:36:13;;;;;;;18.63;9.67;;;;;;;18.87;72.59;100602.41;5065995;28;20544;-75
2021/07/16 03:38:40;;;;;;;14.13;8.43;;;;;;;18.90;72.45;100602.00;5062558;28;20477;-75
2021/07/16 03:41:09;;;;;;;14.80;9.80;;;;;;;19.02;71.76;100599.66;5060314;28;20839;-75
2021/07/16 03:43:36;;;;;;;17.73;10.40;;;;;;;18.87;72.12;100602.41;5062611;28;20441;-74
2021/07/16 03:46:03;;;;;;;17.17;9.77;;;;;;;18.68;72.46;100595.63;5060977;28;20516;-75
2021/07/16 03:48:29;;;;;;;17.93;10.47;;;;;;;18.72;72.67;100602.34;5062389;28;20790;-74
2021/07/16 03:50:56;;;;;;;14.17;9.37;;;;;;;18.75;72.52;100603.84;5058653;28;20468;-75
2021/07/16 03:53:23;;;;;;;16.87;10.27;;;;;;;18.64;72.84;100602.41;5062235;28;20438;-74
2021/07/16 03:55:49;;;;;;;16.57;9.67;;;;;;;18.75;72.57;100604.69;5061190;28;21064;-74
2021/07/16 03:58:17;;;;;;;22.30;10.53;;;;;;;18.83;72.23;100606.47;5061155;28;20472;-75
2021/07/16 04:00:44;;;;;;;14.20;10.20;;;;;;;18.60;73.45;100604.66;5061120;28;20476;-75
2021/07/16 04:03:11;;;;;;;21.20;10.10;;;;;;;18.66;72.86;100611.19;5061680;28;20481;-75
2021/07/16 04:05:38;;;;;;;17.03;11.00;;;;;;;18.63;72.86;100607.00;5052669;28;20860;-75
2021/07/16 04:08:06;;;;;;;22.70;10.47;;;;;;;18.62;72.38;100608.00;5061666;28;20453;-75
2021/07/16 04:10:34;;;;;;;21.80;10.27;;;;;;;18.61;72.13;100606.34;5060051;28;20483;-75
2021/07/16 04:13:03;;;;;;;18.63;10.07;;;;;;;18.54;72.66;100604.53;5062027;28;20465;-75
2021/07/16 04:15:31;;;;;;;20.77;10.33;;;;;;;18.56;72.50;100611.47;5060412;28;20535;-74
2021/07/16 04:17:59;;;;;;;16.37;10.80;;;;;;;18.62;72.31;100616.13;5061518;28;20854;-74
2021/07/16 04:20:26;;;;;;;24.73;10.10;;;;;;;18.75;72.10;100620.94;5059423;28;20473;-74
2021/07/16 04:22:53;;;;;;;16.43;10.50;;;;;;;18.74;72.37;100621.94;5060842;28;20457;-75
2021/07/16 04:25:20;;;;;;;17.73;10.80;;;;;;;18.71;72.37;100622.31;5060882;28;20484;-75
2021/07/16 04:27:48;;;;;;;17.23;10.87;;;;;;;18.76;72.06;100617.19;5061173;28;21030;-75
2021/07/16 04:30:15;;;;;;;16.20;9.23;;;;;;;18.72;72.01;100623.16;5060445;28;20532;-75
2021/07/16 04:32:44;;;;;;;17.70;10.60;;;;;;;18.55;72.58;100622.47;5061018;28;20513;-75
2021/07/16 04:35:13;;;;;;;16.80;10.60;;;;;;;18.56;72.61;100619.59;5053986;28;20461;-75
2021/07/16 04:37:40;;;;;;;18.10;9.27;;;;;;;18.80;71.90;100618.50;5059995;28;20464;-75
2021/07/16 04:40:09;;;;;;;19.57;10.80;;;;;;;18.80;71.54;100628.47;5052593;28;20567;-75
2021/07/16 04:42:36;;;;;;;28.10;10.03;;;;;;;18.48;72.59;100625.06;5047025;28;20903;-76
2021/07/16 04:45:02;;;;;;;20.23;9.73;;;;;;;18.70;72.09;100623.34;5050118;28;20579;-76
2021/07/16 04:47:29;;;;;;;16.97;10.07;;;;;;;18.44;72.82;100616.47;5059371;28;20563;-76
2021/07/16 04:49:57;;;;;;;19.63;10.57;;;;;;;18.49;73.05;100617.78;5058264;28;20476;-76
2021/07/16 04:52:24;;;;;;;16.10;11.80;;;;;;;18.42;72.94;100621.25;5059125;28;20564;-76
2021/07/16 04:54:51;;;;;;;20.97;11.10;;;;;;;18.27;73.72;100614.94;5049826;28;20518;-77
2021/07/16 04:57:17;;;;;;;23.63;11.33;;;;;;;18.64;72.69;100621.38;5053117;28;20540;-76
2021/07/16 04:59:44;;;;;;;23.00;11.00;;;;;;;18.91;72.02;100625.38;5042276;28;20558;-76
2021/07/16 05:02:10;;;;;;;24.97;11.60;;;;;;;18.91;71.83;100630.78;5044869;28;20904;-77
2021/07/16 05:04:37;;;;;;;22.03;11.00;;;;;;;18.81;72.20;100633.72;5050983;28;20460;-76
2021/07/16 05:07:06;;;;;;;23.20;10.80;;;;;;;18.81;72.36;100631.00;5059392;28;20488;-75
2021/07/16 05:09:32;;;;;;;16.87;10.63;;;;;;;18.72;72.73;100634.84;5060125;28;20473;-78
2021/07/16 05:11:59;;;;;;;17.73;10.03;;;;;;;18.61;73.22;100629.88;5043127;28;20501;-75
2021/07/16 05:14:25;;;;;;;23.73;10.83;;;;;;;18.40;74.30;100626.00;5058260;28;20480;-75
2021/07/16 05:16:52;;;;;;;26.60;13.60;;;;;;;18.53;74.26;100628.09;5059634;28;20481;-75
2021/07/16 05:19:19;;;;;;;16.53;10.60;;;;;;;18.56;74.34;100626.88;5052026;28;20774;-75
2021/07/16 05:21:46;;;;;;;27.80;10.73;;;;;;;18.37;74.39;100634.50;5059326;28;20591;-75
2021/07/16 05:24:14;;;;;;;16.30;10.80;;;;;;;18.69;73.65;100637.91;5057955;28;20487;-75
2021/07/16 05:26:41;;;;;;;22.00;13.37;;;;;;;18.70;73.18;100636.06;5057476;28;20508;-75
2021/07/16 05:29:07;;;;;;;17.40;10.70;;;;;;;18.86;72.81;100640.50;5059223;28;21137;-75
2021/07/16 05:31:34;;;;;;;19.07;11.30;;;;;;;18.73;73.08;100643.78;5046520;28;20540;-75
2021/07/16 05:34:00;;;;;;;22.97;12.47;;;;;;;18.72;72.58;100648.38;5049781;28;20438;-77
2021/07/16 05:36:27;;;;;;;28.17;12.10;;;;;;;18.65;72.93;100654.72;5045570;28;20499;-74
2021/07/16 05:38:54;;;;;;;22.43;11.63;;;;;;;18.75;72.71;100649.91;5056017;28;20516;-76
2021/07/16 05:41:23;;;;;;;23.27;13.20;;;;;;;18.56;72.69;100645.84;5058519;28;20483;-76
2021/07/16 05:43:50;;;;;;;23.47;12.20;;;;;;;18.69;72.74;100661.44;5056523;28;20455;-75
2021/07/16 05:46:16;;;;;;;30.63;12.70;;;;;;;18.63;72.54;100655.75;5052191;28;20508;-76
2021/07/16 05:48:46;;;;;;;17.10;12.07;;;;;;;18.80;72.06;100651.00;5059570;28;20472;-75
2021/07/16 05:51:13;;;;;;;19.20;11.53;;;;;;;18.82;71.67;100650.88;5044325;28;20905;-76
2021/07/16 05:53:40;;;;;;;21.53;11.80;;;;;;;18.66;72.27;100654.53;5038862;28;20507;-74
2021/07/16 05:56:06;;;;;;;27.37;12.47;;;;;;;18.87;71.61;100650.28;5052431;28;21054;-75
2021/07/16 05:58:34;;;;;;;24.53;10.93;;;;;;;18.77;71.87;100648.66;5060030;28;20445;-75
2021/07/16 06:01:01;;;;;;;22.87;12.77;;;;;;;18.74;71.54;100654.44;5057254;28;20779;-75
2021/07/16 06:03:28;;;;;;;18.00;11.27;;;;;;;19.08;70.97;100652.25;5059880;28;20496;-75
2021/07/16 06:05:54;;;;;;;18.73;11.50;;;;;;;18.78;70.96;100650.38;5058672;28;20495;-75
2021/07/16 06:08:21;;;;;;;19.63;10.50;;;;;;;18.76;71.14;100660.53;5058298;28;20462;-75
2021/07/16 06:10:48;;;;;;;22.20;10.93;;;;;;;18.77;70.35;100659.50;5058882;28;20492;-75
2021/07/16 06:13:14;;;;;;;26.27;11.60;;;;;;;18.78;70.76;100663.03;5059619;28;20425;-75
2021/07/16 06:15:42;;;;;;;22.93;11.00;;;;;;;18.94;70.12;100664.78;5061393;28;20484;-75
2021/07/16 06:18:09;;;;;;;25.87;11.23;;;;;;;19.18;69.56;100663.66;5061054;28;20484;-75
2021/07/16 06:20:36;;;;;;;21.37;12.57;;;;;;;19.02;69.76;100670.13;5061158;28;20499;-75
2021/07/16 06:23:02;;;;;;;20.43;10.03;;;;;;;19.17;68.90;100662.84;5061190;28;20531;-74
2021/07/16 06:25:29;;;;;;;26.60;10.30;;;;;;;19.22;68.62;100659.56;5061354;28;20472;-74
2021/07/16 06:27:56;;;;;;;20.63;10.10;;;;;;;19.21;68.67;100663.31;5045864;28;20758;-74
2021/07/16 06:30:22;;;;;;;19.23;9.50;;;;;;;19.24;68.27;100668.34;5054538;28;20532;-74
2021/07/16 06:32:50;;;;;;;19.87;10.20;;;;;;;19.06;68.76;100676.88;5062837;28;20508;-74
2021/07/16 06:35:17;;;;;;;22.00;9.03;;;;;;;19.17;68.88;100672.84;5061318;28;20529;-75
2021/07/16 06:37:43;;;;;;;29.00;10.40;;;;;;;19.21;68.34;100674.16;5056101;28;20455;-74
2021/07/16 06:40:12;;;;;;;18.17;10.40;;;;;;;19.25;68.40;100672.75;5061392;28;20567;-74
2021/07/16 06:42:38;;;;;;;18.50;9.83;;;;;;;19.48;67.59;100672.66;5063304;28;20536;-74
2021/07/16 06:45:06;;;;;;;23.17;10.30;;;;;;;19.10;68.55;100677.34;5055655;28;20457;-75
2021/07/16 06:47:33;;;;;;;16.20;8.27;;;;;;;19.10;68.29;100667.31;5054845;28;20778;-75
2021/07/16 06:50:01;;;;;;;13.70;8.23;;;;;;;19.35;67.64;100678.72;5060968;28;20540;-75
2021/07/16 06:52:28;;;;;;;26.23;10.03;;;;;;;19.35;67.32;100683.31;5060092;28;20989;-75
2021/07/16 06:54:55;;;;;;;13.70;8.50;;;;;;;19.45;67.47;100688.44;5050704;28;20476;-74
2021/07/16 06:57:21;;;;;;;23.00;9.93;;;;;;;19.22;67.53;100697.53;5058374;28;20480;-75
2021/07/16 06:59:49;;;;;;;16.37;8.50;;;;;;;19.21;67.49;100703.97;5040745;28;20493;-75
2021/07/16 07:02:15;;;;;;;18.27;8.20;;;;;;;19.35;67.42;100702.28;5054591;28;20480;-75
2021/07/16 07:04:42;;;;;;;24.87;8.97;;;;;;;19.08;68.44;100712.75;5060376;28;20469;-75
2021/07/16 07:07:10;;;;;;;18.53;9.47;;;;;;;19.26;67.89;100709.66;5059614;28;20500;-75
2021/07/16 07:09:37;;;;;;;19.40;9.67;;;;;;;19.53;67.36;100710.06;5060375;28;20516;-75
2021/07/16 07:12:04;;;;;;;20.43;8.70;;;;;;;19.49;67.09;100706.03;5057476;28;20495;-75
2021/07/16 07:14:30;;;;;;;30.87;10.77;;;;;;;19.35;67.11;100715.84;5056635;28;20968;-75
2021/07/16 07:16:57;;;;;;;21.70;8.80;;;;;;;19.41;67.74;100712.41;5039707;28;20507;-75
2021/07/16 07:19:24;;;;;;;22.43;9.60;;;;;;;19.42;67.14;100708.63;5043810;28;20453;-75
2021/07/16 07:21:50;;;;;;;17.80;9.10;;;;;;;19.41;67.66;100717.81;5054650;28;20512;-75
2021/07/16 07:24:18;;;;;;;17.03;9.70;;;;;;;19.60;66.27;100710.97;5057720;28;20467;-75
2021/07/16 07:26:45;;;;;;;23.87;8.33;;;;;;;19.64;66.39;100719.59;5040066;28;20502;-75
2021/07/16 07:29:12;;;;;;;22.13;9.00;;;;;;;19.65;66.74;100715.81;5041109;28;20438;-75
2021/07/16 07:31:38;;;;;;;20.40;8.90;;;;;;;19.83;65.74;100716.31;5037798;28;20478;-75
2021/07/16 07:34:05;;;;;;;19.30;8.23;;;;;;;19.79;66.37;100716.84;5046594;28;20441;-74
2021/07/16 07:36:32;;;;;;;21.07;8.97;;;;;;;19.98;65.67;100712.72;5050485;28;21036;-75
2021/07/16 07:38:59;;;;;;;20.70;8.27;;;;;;;20.01;65.45;100718.59;5055407;28;20480;-75
2021/07/16 07:41:28;;;;;;;32.07;8.60;;;;;;;20.13;65.12;100710.78;5055929;28;20512;-75
2021/07/16 07:43:56;;;;;;;18.60;9.00;;;;;;;20.05;64.82;100724.47;5044743;28;20445;-75
2021/07/16 07:46:23;;;;;;;18.13;8.07;;;;;;;20.42;64.48;100728.84;5050565;28;20538;-75
2021/07/16 07:48:50;;;;;;;22.53;8.90;;;;;;;20.27;63.96;100730.78;5054684;28;20437;-75
2021/07/16 07:51:17;;;;;;;20.63;8.17;;;;;;;20.50;63.99;100727.88;5046435;28;20482;-75
2021/07/16 07:53:44;;;;;;;24.17;8.60;;;;;;;20.60;63.33;100731.09;5046950;28;21045;-75
2021/07/16 07:56:10;;;;;;;28.87;9.20;;;;;;;20.44;63.69;100734.09;5050990;28;21045;-75
2021/07/16 07:58:38;;;;;;;21.00;8.90;;;;;;;20.41;64.15;100731.75;5052016;28;20954;-76
2021/07/16 08:01:05;;;;;;;22.17;9.00;;;;;;;20.40;64.23;100733.66;5050972;28;20599;-75
2021/07/16 08:03:31;;;;;;;17.47;7.90;;;;;;;20.58;63.23;100738.63;5056098;28;20510;-76
2021/07/16 08:06:00;;;;;;;20.63;8.07;;;;;;;20.67;62.90;100733.91;5052150;28;20567;-75
2021/07/16 08:08:26;;;;;;;15.47;7.97;;;;;;;20.65;63.20;100744.16;5054217;28;20492;-75
2021/07/16 08:10:53;;;;;;;24.20;8.97;;;;;;;20.74;63.11;100742.13;5044509;28;20504;-75
2021/07/16 08:13:20;;;;;;;24.03;8.33;;;;;;;20.60;63.00;100749.28;5055436;28;20469;-75
2021/07/16 08:15:48;;;;;;;22.20;8.20;;;;;;;19.91;65.24;100747.91;5042190;28;20477;-73
2021/07/16 08:18:14;;;;;;;22.13;7.67;;;;;;;20.29;64.17;100762.16;5058596;28;20915;-73
2021/07/16 08:20:41;;;;;;;17.43;8.00;;;;;;;20.29;64.16;100759.44;5052104;28;20500;-73
2021/07/16 08:23:08;;;;;;;21.30;8.20;;;;;;;20.55;63.68;100758.00;5043934;28;20508;-73
2021/07/16 08:25:35;;;;;;;20.57;8.90;;;;;;;20.74;63.51;100755.72;5050752;28;20495;-75
2021/07/16 08:28:02;;;;;;;21.73;8.57;;;;;;;20.79;62.62;100759.53;5049468;28;20449;-75
2021/07/16 08:30:29;;;;;;;22.20;7.37;;;;;;;21.14;61.72;100767.75;5047720;28;20464;-75
2021/07/16 08:32:57;;;;;;;22.80;8.27;;;;;;;21.41;61.28;100776.13;5050915;28;20595;-75
2021/07/16 08:35:24;;;;;;;17.93;8.17;;;;;;;21.53;61.54;100776.44;5054520;28;20691;-76
2021/07/16 08:37:50;;;;;;;20.70;8.00;;;;;;;20.99;61.78;100778.75;5048668;28;20446;-74
2021/07/16 08:40:17;;;;;;;20.23;6.70;;;;;;;21.21;61.69;100771.41;5043403;28;20748;-73
2021/07/16 08:42:47;;;;;;;20.20;8.00;;;;;;;21.06;62.73;100776.09;5053891;28;20472;-73
2021/07/16 08:45:14;;;;;;;15.67;7.83;;;;;;;21.37;61.29;100782.97;5048014;28;20495;-73
2021/07/16 08:47:41;;;;;;;20.80;7.30;;;;;;;21.69;60.60;100788.88;5053356;28;20453;-73
2021/07/16 08:50:11;;;;;;;17.47;7.27;;;;;;;21.64;60.86;100789.47;5056646;28;20942;-74
2021/07/16 08:52:38;;;;;;;20.27;8.00;;;;;;;21.67;60.59;100797.25;5054563;28;20456;-74
2021/07/16 08:55:06;;;;;;;15.20;6.93;;;;;;;21.63;59.87;100793.25;5056113;28;20914;-74
2021/07/16 08:57:33;;;;;;;20.00;7.00;;;;;;;21.54;60.42;100791.72;5057224;28;21060;-74
2021/07/16 08:59:59;;;;;;;16.13;7.47;;;;;;;21.38;60.75;100793.66;5055608;28;20465;-74
2021/07/16 09:02:28;;;;;;;25.00;8.20;;;;;;;21.26;60.54;100787.09;5056010;28;20564;-73
2021/07/16 09:04:59;;;;;;;13.43;6.60;;;;;;;21.25;60.63;100791.69;5050936;28;20512;-73
2021/07/16 09:07:27;;;;;;;22.37;7.83;;;;;;;20.84;61.94;100789.69;5054183;28;20479;-73
2021/07/16 09:10:06;;;;;;;29.53;8.90;;;;;;;21.01;61.68;100790.25;5048528;28;20461;-73
2021/07/16 09:12:35;;;;;;;16.73;6.90;;;;;;;21.37;60.94;100783.84;5040050;28;20469;-74
2021/07/16 09:15:02;;;;;;;15.80;6.93;;;;;;;21.58;60.65;100785.69;5041817;28;20967;-74
2021/07/16 09:17:28;;;;;;;19.17;7.57;;;;;;;21.40;60.90;100788.91;5036184;28;20466;-74
2021/07/16 09:19:55;;;;;;;23.93;8.20;;;;;;;21.41;61.15;100792.44;5043810;28;20468;-74
2021/07/16 09:22:25;;;;;;;18.97;7.03;;;;;;;21.25;61.00;100793.59;5039800;28;20951;-74
2021/07/16 09:24:56;;;;;;;19.47;7.73;;;;;;;21.06;61.64;100793.22;5039882;28;20445;-74
2021/07/16 09:27:30;;;;;;;23.90;7.23;;;;;;;21.13;61.46;100793.28;5036417;28;20500;-75
2021/07/16 09:30:11;;;;;;;22.63;7.47;;;;;;;21.03;61.58;100800.94;5047794;28;20458;-75
2021/07/16 09:32:39;;;;;;;19.00;7.77;;;;;;;20.90;62.05;100804.38;5055082;28;20503;-74
2021/07/16 09:35:07;;;;;;;19.73;8.60;;;;;;;20.74;62.70;100804.63;5041843;28;20487;-74
2021/07/16 09:37:34;;;;;;;18.87;7.60;;;;;;;20.67;63.08;100816.25;5036530;28;20450;-75
2021/07/16 09:40:02;;;;;;;17.90;7.50;;;;;;;20.72;63.03;100815.69;5040162;28;20986;-74
2021/07/16 09:42:28;;;;;;;18.47;8.20;;;;;;;20.41;63.56;100819.50;5054911;28;20480;-75
2021/07/16 09:44:59;;;;;;;25.47;8.53;;;;;;;20.36;64.25;100821.13;5053625;28;20472;-74
2021/07/16 09:47:30;;;;;;;20.33;8.13;;;;;;;20.35;63.99;100816.72;5050512;28;20545;-74
2021/07/16 09:50:07;;;;;;;19.23;8.90;;;;;;;20.66;63.10;100809.16;5058862;28;20459;-73
2021/07/16 09:52:34;;;;;;;20.13;8.80;;;;;;;20.62;63.49;100804.31;5040974;28;20493;-72
2021/07/16 09:55:10;;;;;;;17.57;8.57;;;;;;;20.61;62.99;100805.31;5040565;28;20482;-73
2021/07/16 09:57:37;;;;;;;17.00;7.27;;;;;;;20.50;63.19;100809.34;5054483;28;20514;-73
2021/07/16 10:00:14;;;;;;;19.00;7.80;;;;;;;20.59;63.47;100810.94;5059382;28;20626;-73
2021/07/16 10:02:42;;;;;;;21.67;8.23;;;;;;;20.54;63.48;100810.69;5053253;28;20548;-73
2021/07/16 10:05:10;;;;;;;18.90;7.20;;;;;;;20.66;63.15;100801.00;5050950;28;20447;-73
2021/07/16 10:07:37;;;;;;;22.73;8.67;;;;;;;20.67;63.58;100807.28;5054871;28;20500;-73
2021/07/16 10:10:04;;;;;;;16.80;6.97;;;;;;;20.66;63.48;100814.59;5050706;28;20471;-73
2021/07/16 10:12:33;;;;;;;25.03;9.67;;;;;;;20.93;64.24;100814.84;5059189;28;20460;-73
2021/07/16 10:14:59;;;;;;;19.70;7.07;;;;;;;21.04;63.60;100827.94;5057296;28;20440;-73
2021/07/16 10:17:26;;;;;;;16.77;8.90;;;;;;;20.97;64.16;100821.59;5056020;28;20523;-75
2021/07/16 10:19:53;;;;;;;16.70;7.27;;;;;;;21.34;63.77;100825.03;5058189;28;20451;-73
2021/07/16 10:22:20;;;;;;;14.77;8.10;;;;;;;21.57;63.50;100832.13;5058797;28;20473;-77
2021/07/16 10:24:46;;;;;;;18.03;7.53;;;;;;;21.57;62.12;100829.41;5047653;28;20446;-73
2021/07/16 10:27:14;;;;;;;20.77;8.40;;;;;;;21.65;62.40;100834.72;5060793;28;20500;-73
2021/07/16 10:29:45;;;;;;;19.33;6.80;;;;;;;21.75;62.68;100835.19;5058039;28;20502;-73
2021/07/16 10:32:13;;;;;;;25.63;7.63;;;;;;;21.97;62.92;100835.09;5050593;28;20481;-74
2021/07/16 10:34:40;;;;;;;17.57;7.57;;;;;;;22.04;62.24;100835.97;5056582;28;20958;-74
2021/07/16 10:37:09;;;;;;;21.30;8.80;;;;;;;21.65;62.83;100833.84;5058082;28;20468;-74
2021/07/16 10:39:44;;;;;;;20.20;7.40;;;;;;;21.97;61.69;100832.38;5061517;28;20479;-74
2021/07/16 10:42:40;;;;;;;17.40;7.20;;;;;;;21.99;62.14;100842.03;5050223;28;20915;-74
2021/07/16 10:45:10;;;;;;;18.07;6.93;;;;;;;22.03;61.24;100845.19;5042674;28;20465;-74
2021/07/16 10:47:38;;;;;;;17.20;7.23;;;;;;;21.97;62.70;100854.16;5056501;28;20484;-74
2021/07/16 10:50:05;;;;;;;14.97;6.47;;;;;;;21.62;62.52;100857.69;5059107;28;20475;-74
2021/07/16 10:52:49;;;;;;;17.20;6.60;;;;;;;22.03;61.65;100857.94;5058956;28;20450;-74
2021/07/16 10:55:17;;;;;;;17.70;7.70;;;;;;;22.54;59.30;100854.84;5055199;28;20489;-74
2021/07/16 10:57:45;;;;;;;16.73;7.17;;;;;;;22.88;59.36;100864.81;5059625;28;20468;-74
2021/07/16 11:00:50;;;;;;;16.50;7.53;;;;;;;22.73;59.26;100881.31;5059495;28;20488;-74
2021/07/16 11:03:17;;;;;;;17.27;6.43;;;;;;;22.88;58.89;100877.56;5050254;28;20453;-75
2021/07/16 11:05:51;;;;;;;15.47;6.60;;;;;;;22.70;58.94;100867.25;5058423;28;20512;-74
2021/07/16 11:08:54;;;;;;;15.17;7.17;;;;;;;23.15;58.34;100867.59;5059611;28;20459;-75
2021/07/16 11:11:22;;;;;;;19.10;6.90;;;;;;;23.41;57.31;100874.09;5057403;28;20538;-74
2021/07/16 11:13:50;;;;;;;13.57;6.40;;;;;;;23.19;57.67;100871.56;5058226;28;20453;-74
2021/07/16 11:16:41;;;;;;;12.63;5.93;;;;;;;23.61;56.61;100858.56;5056061;28;20480;-75